<?xml version="1.0" encoding="UTF-8" standalone="no" ?>
<gpx xmlns="http://www.topografix.com/GPX/1/1" xmlns:xsi="http://www.w3.org/2001/XMLSchema-instance" xsi:schemaLocation="http://www.topografix.com/GPX/1/1 http://www.topografix.com/GPX/1/1/gpx.xsd" version="1.1" creator="VisuGPX - https://www.visugpx.com">
  <metadata>
    <name>La seigneurie</name>
    <desc><![CDATA[marche perso seigneurie 2016]]></desc>
  </metadata>
  <trk>
    <name><![CDATA[La seigneurie_1]]></name>
    <trkseg>
      <trkpt lat="47.73141" lon="7.05246">
        <ele>378.1</ele>
        <time>2016-07-10T06:45:41Z</time>
      </trkpt>
      <trkpt lat="47.73141" lon="7.05246">
        <ele>433</ele>
        <time>2016-07-10T06:45:52Z</time>
      </trkpt>
      <trkpt lat="47.73127" lon="7.05235">
        <ele>432</ele>
        <time>2016-07-10T06:47:07Z</time>
      </trkpt>
      <trkpt lat="47.73127" lon="7.05235">
        <ele>432</ele>
        <time>2016-07-10T06:47:14Z</time>
      </trkpt>
      <trkpt lat="47.73127" lon="7.05235">
        <ele>432</ele>
        <time>2016-07-10T06:47:15Z</time>
      </trkpt>
      <trkpt lat="47.73138" lon="7.05193">
        <ele>429</ele>
        <time>2016-07-10T06:47:50Z</time>
      </trkpt>
      <trkpt lat="47.73148" lon="7.05169">
        <ele>429</ele>
        <time>2016-07-10T06:48:09Z</time>
      </trkpt>
      <trkpt lat="47.73138" lon="7.05147">
        <ele>429</ele>
        <time>2016-07-10T06:48:25Z</time>
      </trkpt>
      <trkpt lat="47.73133" lon="7.05136">
        <ele>430</ele>
        <time>2016-07-10T06:48:34Z</time>
      </trkpt>
      <trkpt lat="47.73117" lon="7.051">
        <ele>435</ele>
        <time>2016-07-10T06:49:40Z</time>
      </trkpt>
      <trkpt lat="47.73114" lon="7.05092">
        <ele>436</ele>
        <time>2016-07-10T06:49:52Z</time>
      </trkpt>
      <trkpt lat="47.73108" lon="7.05068">
        <ele>433</ele>
        <time>2016-07-10T06:50:11Z</time>
      </trkpt>
      <trkpt lat="47.73105" lon="7.05046">
        <ele>436</ele>
        <time>2016-07-10T06:50:24Z</time>
      </trkpt>
      <trkpt lat="47.73101" lon="7.05027">
        <ele>434</ele>
        <time>2016-07-10T06:50:37Z</time>
      </trkpt>
      <trkpt lat="47.73098" lon="7.05004">
        <ele>434</ele>
        <time>2016-07-10T06:50:54Z</time>
      </trkpt>
      <trkpt lat="47.73098" lon="7.05004">
        <ele>434</ele>
        <time>2016-07-10T06:51:02Z</time>
      </trkpt>
      <trkpt lat="47.73098" lon="7.05004">
        <ele>434</ele>
        <time>2016-07-10T06:51:04Z</time>
      </trkpt>
      <trkpt lat="47.73095" lon="7.04981">
        <ele>439</ele>
        <time>2016-07-10T06:51:19Z</time>
      </trkpt>
      <trkpt lat="47.73098" lon="7.04966">
        <ele>438</ele>
        <time>2016-07-10T06:51:27Z</time>
      </trkpt>
      <trkpt lat="47.73098" lon="7.04956">
        <ele>438</ele>
        <time>2016-07-10T06:51:35Z</time>
      </trkpt>
      <trkpt lat="47.73098" lon="7.04954">
        <ele>440</ele>
        <time>2016-07-10T06:51:43Z</time>
      </trkpt>
      <trkpt lat="47.73102" lon="7.04933">
        <ele>434</ele>
        <time>2016-07-10T06:52:00Z</time>
      </trkpt>
      <trkpt lat="47.73104" lon="7.04917">
        <ele>436</ele>
        <time>2016-07-10T06:52:11Z</time>
      </trkpt>
      <trkpt lat="47.73105" lon="7.04898">
        <ele>434</ele>
        <time>2016-07-10T06:52:21Z</time>
      </trkpt>
      <trkpt lat="47.73106" lon="7.04881">
        <ele>436</ele>
        <time>2016-07-10T06:52:29Z</time>
      </trkpt>
      <trkpt lat="47.73107" lon="7.04876">
        <ele>439</ele>
        <time>2016-07-10T06:52:38Z</time>
      </trkpt>
      <trkpt lat="47.73111" lon="7.04849">
        <ele>436</ele>
        <time>2016-07-10T06:52:58Z</time>
      </trkpt>
      <trkpt lat="47.73112" lon="7.04831">
        <ele>435</ele>
        <time>2016-07-10T06:53:07Z</time>
      </trkpt>
      <trkpt lat="47.73112" lon="7.04821">
        <ele>442</ele>
        <time>2016-07-10T06:53:14Z</time>
      </trkpt>
      <trkpt lat="47.73114" lon="7.04817">
        <ele>443</ele>
        <time>2016-07-10T06:53:22Z</time>
      </trkpt>
      <trkpt lat="47.73117" lon="7.04788">
        <ele>444</ele>
        <time>2016-07-10T06:53:46Z</time>
      </trkpt>
      <trkpt lat="47.73118" lon="7.04773">
        <ele>444</ele>
        <time>2016-07-10T06:53:54Z</time>
      </trkpt>
      <trkpt lat="47.73123" lon="7.04752">
        <ele>454</ele>
        <time>2016-07-10T06:54:03Z</time>
      </trkpt>
      <trkpt lat="47.73124" lon="7.04729">
        <ele>458</ele>
        <time>2016-07-10T06:54:17Z</time>
      </trkpt>
      <trkpt lat="47.73111" lon="7.04708">
        <ele>452</ele>
        <time>2016-07-10T06:54:34Z</time>
      </trkpt>
      <trkpt lat="47.73116" lon="7.04682">
        <ele>446</ele>
        <time>2016-07-10T06:54:54Z</time>
      </trkpt>
      <trkpt lat="47.73116" lon="7.04682">
        <ele>446</ele>
        <time>2016-07-10T06:55:01Z</time>
      </trkpt>
      <trkpt lat="47.73116" lon="7.04682">
        <ele>446</ele>
        <time>2016-07-10T06:55:02Z</time>
      </trkpt>
      <trkpt lat="47.73129" lon="7.0464">
        <ele>450</ele>
        <time>2016-07-10T06:55:39Z</time>
      </trkpt>
      <trkpt lat="47.73136" lon="7.04608">
        <ele>451</ele>
        <time>2016-07-10T06:55:56Z</time>
      </trkpt>
      <trkpt lat="47.73146" lon="7.0459">
        <ele>455</ele>
        <time>2016-07-10T06:56:12Z</time>
      </trkpt>
      <trkpt lat="47.73144" lon="7.04575">
        <ele>461</ele>
        <time>2016-07-10T06:56:21Z</time>
      </trkpt>
      <trkpt lat="47.73151" lon="7.04554">
        <ele>464</ele>
        <time>2016-07-10T06:56:35Z</time>
      </trkpt>
      <trkpt lat="47.73151" lon="7.04554">
        <ele>464</ele>
        <time>2016-07-10T06:56:42Z</time>
      </trkpt>
      <trkpt lat="47.73151" lon="7.04554">
        <ele>464</ele>
        <time>2016-07-10T06:56:43Z</time>
      </trkpt>
      <trkpt lat="47.73157" lon="7.04531">
        <ele>460</ele>
        <time>2016-07-10T06:57:16Z</time>
      </trkpt>
      <trkpt lat="47.73153" lon="7.04513">
        <ele>459</ele>
        <time>2016-07-10T06:57:24Z</time>
      </trkpt>
      <trkpt lat="47.73161" lon="7.04495">
        <ele>455</ele>
        <time>2016-07-10T06:57:36Z</time>
      </trkpt>
      <trkpt lat="47.7317" lon="7.04467">
        <ele>458</ele>
        <time>2016-07-10T06:57:50Z</time>
      </trkpt>
      <trkpt lat="47.7317" lon="7.04459">
        <ele>458</ele>
        <time>2016-07-10T06:57:53Z</time>
      </trkpt>
      <trkpt lat="47.73172" lon="7.04457">
        <ele>459</ele>
        <time>2016-07-10T06:58:00Z</time>
      </trkpt>
      <trkpt lat="47.73179" lon="7.04437">
        <ele>455</ele>
        <time>2016-07-10T06:58:56Z</time>
      </trkpt>
      <trkpt lat="47.7318" lon="7.04421">
        <ele>450</ele>
        <time>2016-07-10T06:59:05Z</time>
      </trkpt>
      <trkpt lat="47.73183" lon="7.0439">
        <ele>448</ele>
        <time>2016-07-10T06:59:22Z</time>
      </trkpt>
      <trkpt lat="47.73181" lon="7.04366">
        <ele>451</ele>
        <time>2016-07-10T06:59:41Z</time>
      </trkpt>
      <trkpt lat="47.73178" lon="7.04333">
        <ele>451</ele>
        <time>2016-07-10T07:00:00Z</time>
      </trkpt>
      <trkpt lat="47.73182" lon="7.04311">
        <ele>456</ele>
        <time>2016-07-10T07:00:10Z</time>
      </trkpt>
      <trkpt lat="47.73179" lon="7.04299">
        <ele>458</ele>
        <time>2016-07-10T07:00:26Z</time>
      </trkpt>
      <trkpt lat="47.73179" lon="7.0428">
        <ele>451</ele>
        <time>2016-07-10T07:00:36Z</time>
      </trkpt>
      <trkpt lat="47.73174" lon="7.04262">
        <ele>451</ele>
        <time>2016-07-10T07:00:51Z</time>
      </trkpt>
      <trkpt lat="47.73168" lon="7.04248">
        <ele>451</ele>
        <time>2016-07-10T07:01:00Z</time>
      </trkpt>
      <trkpt lat="47.73167" lon="7.04234">
        <ele>450</ele>
        <time>2016-07-10T07:01:09Z</time>
      </trkpt>
      <trkpt lat="47.73162" lon="7.04218">
        <ele>450</ele>
        <time>2016-07-10T07:01:19Z</time>
      </trkpt>
      <trkpt lat="47.73161" lon="7.04212">
        <ele>453</ele>
        <time>2016-07-10T07:01:27Z</time>
      </trkpt>
      <trkpt lat="47.73155" lon="7.04195">
        <ele>457</ele>
        <time>2016-07-10T07:01:40Z</time>
      </trkpt>
      <trkpt lat="47.73156" lon="7.04179">
        <ele>451</ele>
        <time>2016-07-10T07:01:47Z</time>
      </trkpt>
      <trkpt lat="47.73147" lon="7.04158">
        <ele>451</ele>
        <time>2016-07-10T07:01:59Z</time>
      </trkpt>
      <trkpt lat="47.73139" lon="7.04146">
        <ele>449</ele>
        <time>2016-07-10T07:02:10Z</time>
      </trkpt>
      <trkpt lat="47.7313" lon="7.04113">
        <ele>449</ele>
        <time>2016-07-10T07:02:27Z</time>
      </trkpt>
      <trkpt lat="47.73122" lon="7.04086">
        <ele>454</ele>
        <time>2016-07-10T07:02:48Z</time>
      </trkpt>
      <trkpt lat="47.73117" lon="7.04065">
        <ele>453</ele>
        <time>2016-07-10T07:03:01Z</time>
      </trkpt>
      <trkpt lat="47.73115" lon="7.04039">
        <ele>462</ele>
        <time>2016-07-10T07:03:17Z</time>
      </trkpt>
      <trkpt lat="47.7312" lon="7.04038">
        <ele>464</ele>
        <time>2016-07-10T07:03:20Z</time>
      </trkpt>
      <trkpt lat="47.73105" lon="7.04015">
        <ele>461</ele>
        <time>2016-07-10T07:03:38Z</time>
      </trkpt>
      <trkpt lat="47.73095" lon="7.03988">
        <ele>460</ele>
        <time>2016-07-10T07:03:57Z</time>
      </trkpt>
      <trkpt lat="47.73084" lon="7.03972">
        <ele>460</ele>
        <time>2016-07-10T07:04:09Z</time>
      </trkpt>
      <trkpt lat="47.73076" lon="7.03957">
        <ele>456</ele>
        <time>2016-07-10T07:04:24Z</time>
      </trkpt>
      <trkpt lat="47.73068" lon="7.03937">
        <ele>453</ele>
        <time>2016-07-10T07:04:40Z</time>
      </trkpt>
      <trkpt lat="47.73057" lon="7.03927">
        <ele>453</ele>
        <time>2016-07-10T07:04:52Z</time>
      </trkpt>
      <trkpt lat="47.73052" lon="7.03916">
        <ele>455</ele>
        <time>2016-07-10T07:05:00Z</time>
      </trkpt>
      <trkpt lat="47.73045" lon="7.03901">
        <ele>455</ele>
        <time>2016-07-10T07:05:12Z</time>
      </trkpt>
      <trkpt lat="47.73041" lon="7.03892">
        <ele>454</ele>
        <time>2016-07-10T07:05:25Z</time>
      </trkpt>
      <trkpt lat="47.73031" lon="7.03864">
        <ele>457</ele>
        <time>2016-07-10T07:05:44Z</time>
      </trkpt>
      <trkpt lat="47.73026" lon="7.0385">
        <ele>461</ele>
        <time>2016-07-10T07:05:52Z</time>
      </trkpt>
      <trkpt lat="47.73018" lon="7.03841">
        <ele>463</ele>
        <time>2016-07-10T07:06:05Z</time>
      </trkpt>
      <trkpt lat="47.73004" lon="7.03822">
        <ele>465</ele>
        <time>2016-07-10T07:06:24Z</time>
      </trkpt>
      <trkpt lat="47.73002" lon="7.03819">
        <ele>467</ele>
        <time>2016-07-10T07:06:28Z</time>
      </trkpt>
      <trkpt lat="47.7301" lon="7.03807">
        <ele>467</ele>
        <time>2016-07-10T07:06:40Z</time>
      </trkpt>
      <trkpt lat="47.73006" lon="7.03797">
        <ele>466</ele>
        <time>2016-07-10T07:06:48Z</time>
      </trkpt>
      <trkpt lat="47.73005" lon="7.03797">
        <ele>464</ele>
        <time>2016-07-10T07:06:57Z</time>
      </trkpt>
      <trkpt lat="47.73026" lon="7.03779">
        <ele>457</ele>
        <time>2016-07-10T07:07:21Z</time>
      </trkpt>
      <trkpt lat="47.73036" lon="7.0377">
        <ele>454</ele>
        <time>2016-07-10T07:07:28Z</time>
      </trkpt>
      <trkpt lat="47.73051" lon="7.03748">
        <ele>451</ele>
        <time>2016-07-10T07:07:43Z</time>
      </trkpt>
      <trkpt lat="47.73062" lon="7.0373">
        <ele>448</ele>
        <time>2016-07-10T07:07:59Z</time>
      </trkpt>
      <trkpt lat="47.73062" lon="7.0373">
        <ele>448</ele>
        <time>2016-07-10T07:08:06Z</time>
      </trkpt>
      <trkpt lat="47.73062" lon="7.0373">
        <ele>448</ele>
        <time>2016-07-10T07:08:07Z</time>
      </trkpt>
      <trkpt lat="47.73069" lon="7.03709">
        <ele>454</ele>
        <time>2016-07-10T07:08:17Z</time>
      </trkpt>
      <trkpt lat="47.7307" lon="7.03705">
        <ele>453</ele>
        <time>2016-07-10T07:08:23Z</time>
      </trkpt>
      <trkpt lat="47.73071" lon="7.03701">
        <ele>452</ele>
        <time>2016-07-10T07:08:31Z</time>
      </trkpt>
      <trkpt lat="47.73078" lon="7.03674">
        <ele>454</ele>
        <time>2016-07-10T07:08:51Z</time>
      </trkpt>
      <trkpt lat="47.73081" lon="7.03666">
        <ele>454</ele>
        <time>2016-07-10T07:08:54Z</time>
      </trkpt>
      <trkpt lat="47.73082" lon="7.03663">
        <ele>454</ele>
        <time>2016-07-10T07:09:00Z</time>
      </trkpt>
      <trkpt lat="47.73095" lon="7.03635">
        <ele>462</ele>
        <time>2016-07-10T07:10:16Z</time>
      </trkpt>
      <trkpt lat="47.73095" lon="7.03635">
        <ele>462</ele>
        <time>2016-07-10T07:10:24Z</time>
      </trkpt>
      <trkpt lat="47.73095" lon="7.03635">
        <ele>462</ele>
        <time>2016-07-10T07:10:25Z</time>
      </trkpt>
      <trkpt lat="47.731" lon="7.03617">
        <ele>454</ele>
        <time>2016-07-10T07:10:38Z</time>
      </trkpt>
      <trkpt lat="47.73104" lon="7.03601">
        <ele>457</ele>
        <time>2016-07-10T07:10:48Z</time>
      </trkpt>
      <trkpt lat="47.73114" lon="7.03576">
        <ele>457</ele>
        <time>2016-07-10T07:11:03Z</time>
      </trkpt>
      <trkpt lat="47.73122" lon="7.03562">
        <ele>454</ele>
        <time>2016-07-10T07:11:15Z</time>
      </trkpt>
      <trkpt lat="47.73131" lon="7.03534">
        <ele>453</ele>
        <time>2016-07-10T07:11:34Z</time>
      </trkpt>
      <trkpt lat="47.73138" lon="7.03518">
        <ele>450</ele>
        <time>2016-07-10T07:11:45Z</time>
      </trkpt>
      <trkpt lat="47.7314" lon="7.035">
        <ele>452</ele>
        <time>2016-07-10T07:11:52Z</time>
      </trkpt>
      <trkpt lat="47.73141" lon="7.03493">
        <ele>448</ele>
        <time>2016-07-10T07:12:00Z</time>
      </trkpt>
      <trkpt lat="47.73154" lon="7.03463">
        <ele>452</ele>
        <time>2016-07-10T07:12:39Z</time>
      </trkpt>
      <trkpt lat="47.73158" lon="7.03449">
        <ele>451</ele>
        <time>2016-07-10T07:12:47Z</time>
      </trkpt>
      <trkpt lat="47.73167" lon="7.0343">
        <ele>453</ele>
        <time>2016-07-10T07:13:02Z</time>
      </trkpt>
      <trkpt lat="47.73176" lon="7.03411">
        <ele>455</ele>
        <time>2016-07-10T07:13:17Z</time>
      </trkpt>
      <trkpt lat="47.73177" lon="7.03404">
        <ele>455</ele>
        <time>2016-07-10T07:13:20Z</time>
      </trkpt>
      <trkpt lat="47.73187" lon="7.0339">
        <ele>450</ele>
        <time>2016-07-10T07:13:34Z</time>
      </trkpt>
      <trkpt lat="47.7319" lon="7.0337">
        <ele>449</ele>
        <time>2016-07-10T07:13:45Z</time>
      </trkpt>
      <trkpt lat="47.73203" lon="7.03335">
        <ele>451</ele>
        <time>2016-07-10T07:14:05Z</time>
      </trkpt>
      <trkpt lat="47.73208" lon="7.03322">
        <ele>445</ele>
        <time>2016-07-10T07:14:16Z</time>
      </trkpt>
      <trkpt lat="47.73223" lon="7.03288">
        <ele>457</ele>
        <time>2016-07-10T07:14:59Z</time>
      </trkpt>
      <trkpt lat="47.73233" lon="7.03268">
        <ele>459</ele>
        <time>2016-07-10T07:15:12Z</time>
      </trkpt>
      <trkpt lat="47.73236" lon="7.03246">
        <ele>457</ele>
        <time>2016-07-10T07:15:21Z</time>
      </trkpt>
      <trkpt lat="47.73241" lon="7.0323">
        <ele>454</ele>
        <time>2016-07-10T07:15:34Z</time>
      </trkpt>
      <trkpt lat="47.73252" lon="7.0321">
        <ele>456</ele>
        <time>2016-07-10T07:15:47Z</time>
      </trkpt>
      <trkpt lat="47.73259" lon="7.03184">
        <ele>454</ele>
        <time>2016-07-10T07:16:04Z</time>
      </trkpt>
      <trkpt lat="47.73262" lon="7.03177">
        <ele>455</ele>
        <time>2016-07-10T07:16:08Z</time>
      </trkpt>
      <trkpt lat="47.73267" lon="7.03167">
        <ele>453</ele>
        <time>2016-07-10T07:16:21Z</time>
      </trkpt>
      <trkpt lat="47.73276" lon="7.03148">
        <ele>447</ele>
        <time>2016-07-10T07:16:37Z</time>
      </trkpt>
      <trkpt lat="47.7329" lon="7.03115">
        <ele>454</ele>
        <time>2016-07-10T07:17:04Z</time>
      </trkpt>
      <trkpt lat="47.73291" lon="7.031">
        <ele>452</ele>
        <time>2016-07-10T07:17:10Z</time>
      </trkpt>
      <trkpt lat="47.73301" lon="7.03083">
        <ele>454</ele>
        <time>2016-07-10T07:17:23Z</time>
      </trkpt>
      <trkpt lat="47.7331" lon="7.03052">
        <ele>456</ele>
        <time>2016-07-10T07:17:41Z</time>
      </trkpt>
      <trkpt lat="47.73317" lon="7.03034">
        <ele>453</ele>
        <time>2016-07-10T07:17:56Z</time>
      </trkpt>
      <trkpt lat="47.73325" lon="7.03001">
        <ele>449</ele>
        <time>2016-07-10T07:18:14Z</time>
      </trkpt>
      <trkpt lat="47.73331" lon="7.02981">
        <ele>451</ele>
        <time>2016-07-10T07:18:26Z</time>
      </trkpt>
      <trkpt lat="47.73336" lon="7.02957">
        <ele>454</ele>
        <time>2016-07-10T07:18:37Z</time>
      </trkpt>
      <trkpt lat="47.73345" lon="7.02942">
        <ele>453</ele>
        <time>2016-07-10T07:18:51Z</time>
      </trkpt>
      <trkpt lat="47.7336" lon="7.02911">
        <ele>454</ele>
        <time>2016-07-10T07:19:08Z</time>
      </trkpt>
      <trkpt lat="47.73363" lon="7.02889">
        <ele>451</ele>
        <time>2016-07-10T07:19:20Z</time>
      </trkpt>
      <trkpt lat="47.73373" lon="7.02864">
        <ele>453</ele>
        <time>2016-07-10T07:19:37Z</time>
      </trkpt>
      <trkpt lat="47.73385" lon="7.02835">
        <ele>459</ele>
        <time>2016-07-10T07:19:56Z</time>
      </trkpt>
      <trkpt lat="47.73394" lon="7.02812">
        <ele>455</ele>
        <time>2016-07-10T07:20:12Z</time>
      </trkpt>
      <trkpt lat="47.73403" lon="7.02793">
        <ele>457</ele>
        <time>2016-07-10T07:20:24Z</time>
      </trkpt>
      <trkpt lat="47.7341" lon="7.02774">
        <ele>454</ele>
        <time>2016-07-10T07:20:40Z</time>
      </trkpt>
      <trkpt lat="47.7342" lon="7.02745">
        <ele>458</ele>
        <time>2016-07-10T07:20:58Z</time>
      </trkpt>
      <trkpt lat="47.73431" lon="7.0272">
        <ele>460</ele>
        <time>2016-07-10T07:21:13Z</time>
      </trkpt>
      <trkpt lat="47.73442" lon="7.02698">
        <ele>461</ele>
        <time>2016-07-10T07:21:29Z</time>
      </trkpt>
      <trkpt lat="47.73449" lon="7.02671">
        <ele>455</ele>
        <time>2016-07-10T07:21:45Z</time>
      </trkpt>
      <trkpt lat="47.73455" lon="7.02647">
        <ele>463</ele>
        <time>2016-07-10T07:22:00Z</time>
      </trkpt>
      <trkpt lat="47.73467" lon="7.02621">
        <ele>461</ele>
        <time>2016-07-10T07:22:12Z</time>
      </trkpt>
      <trkpt lat="47.73472" lon="7.02606">
        <ele>465</ele>
        <time>2016-07-10T07:22:19Z</time>
      </trkpt>
      <trkpt lat="47.7348" lon="7.02591">
        <ele>464</ele>
        <time>2016-07-10T07:22:33Z</time>
      </trkpt>
      <trkpt lat="47.73492" lon="7.02575">
        <ele>462</ele>
        <time>2016-07-10T07:22:48Z</time>
      </trkpt>
      <trkpt lat="47.73502" lon="7.02554">
        <ele>457</ele>
        <time>2016-07-10T07:23:01Z</time>
      </trkpt>
      <trkpt lat="47.73517" lon="7.02534">
        <ele>461</ele>
        <time>2016-07-10T07:23:16Z</time>
      </trkpt>
      <trkpt lat="47.73525" lon="7.02523">
        <ele>460</ele>
        <time>2016-07-10T07:23:27Z</time>
      </trkpt>
      <trkpt lat="47.73542" lon="7.02501">
        <ele>460</ele>
        <time>2016-07-10T07:23:45Z</time>
      </trkpt>
      <trkpt lat="47.73548" lon="7.02499">
        <ele>459</ele>
        <time>2016-07-10T07:23:48Z</time>
      </trkpt>
      <trkpt lat="47.7355" lon="7.02501">
        <ele>461</ele>
        <time>2016-07-10T07:23:57Z</time>
      </trkpt>
      <trkpt lat="47.73562" lon="7.02479">
        <ele>463</ele>
        <time>2016-07-10T07:24:16Z</time>
      </trkpt>
      <trkpt lat="47.73568" lon="7.02468">
        <ele>459</ele>
        <time>2016-07-10T07:24:23Z</time>
      </trkpt>
      <trkpt lat="47.7358" lon="7.02447">
        <ele>458</ele>
        <time>2016-07-10T07:24:35Z</time>
      </trkpt>
      <trkpt lat="47.73591" lon="7.02424">
        <ele>463</ele>
        <time>2016-07-10T07:24:49Z</time>
      </trkpt>
      <trkpt lat="47.73596" lon="7.02412">
        <ele>462</ele>
        <time>2016-07-10T07:24:59Z</time>
      </trkpt>
      <trkpt lat="47.73606" lon="7.02397">
        <ele>465</ele>
        <time>2016-07-10T07:25:07Z</time>
      </trkpt>
      <trkpt lat="47.73614" lon="7.02387">
        <ele>464</ele>
        <time>2016-07-10T07:25:16Z</time>
      </trkpt>
      <trkpt lat="47.73627" lon="7.02369">
        <ele>463</ele>
        <time>2016-07-10T07:25:30Z</time>
      </trkpt>
      <trkpt lat="47.73642" lon="7.02351">
        <ele>464</ele>
        <time>2016-07-10T07:25:47Z</time>
      </trkpt>
      <trkpt lat="47.73651" lon="7.02343">
        <ele>463</ele>
        <time>2016-07-10T07:25:53Z</time>
      </trkpt>
      <trkpt lat="47.73654" lon="7.02332">
        <ele>465</ele>
        <time>2016-07-10T07:26:04Z</time>
      </trkpt>
      <trkpt lat="47.7366" lon="7.02329">
        <ele>463</ele>
        <time>2016-07-10T07:26:09Z</time>
      </trkpt>
      <trkpt lat="47.73663" lon="7.02325">
        <ele>462</ele>
        <time>2016-07-10T07:26:18Z</time>
      </trkpt>
      <trkpt lat="47.73678" lon="7.02318">
        <ele>466</ele>
        <time>2016-07-10T07:26:35Z</time>
      </trkpt>
      <trkpt lat="47.73697" lon="7.02317">
        <ele>459</ele>
        <time>2016-07-10T07:26:48Z</time>
      </trkpt>
      <trkpt lat="47.73721" lon="7.02302">
        <ele>464</ele>
        <time>2016-07-10T07:27:08Z</time>
      </trkpt>
      <trkpt lat="47.73739" lon="7.0229">
        <ele>468</ele>
        <time>2016-07-10T07:27:27Z</time>
      </trkpt>
      <trkpt lat="47.73748" lon="7.02284">
        <ele>467</ele>
        <time>2016-07-10T07:27:41Z</time>
      </trkpt>
      <trkpt lat="47.73768" lon="7.02272">
        <ele>460</ele>
        <time>2016-07-10T07:28:03Z</time>
      </trkpt>
      <trkpt lat="47.73781" lon="7.02267">
        <ele>460</ele>
        <time>2016-07-10T07:28:14Z</time>
      </trkpt>
      <trkpt lat="47.73806" lon="7.02255">
        <ele>461</ele>
        <time>2016-07-10T07:28:29Z</time>
      </trkpt>
      <trkpt lat="47.73809" lon="7.02253">
        <ele>462</ele>
        <time>2016-07-10T07:28:31Z</time>
      </trkpt>
      <trkpt lat="47.73815" lon="7.02246">
        <ele>460</ele>
        <time>2016-07-10T07:28:42Z</time>
      </trkpt>
      <trkpt lat="47.73829" lon="7.02241">
        <ele>463</ele>
        <time>2016-07-10T07:28:58Z</time>
      </trkpt>
      <trkpt lat="47.73856" lon="7.02228">
        <ele>470</ele>
        <time>2016-07-10T07:29:16Z</time>
      </trkpt>
      <trkpt lat="47.73869" lon="7.02227">
        <ele>470</ele>
        <time>2016-07-10T07:29:28Z</time>
      </trkpt>
      <trkpt lat="47.73875" lon="7.02223">
        <ele>470</ele>
        <time>2016-07-10T07:29:31Z</time>
      </trkpt>
      <trkpt lat="47.73883" lon="7.02223">
        <ele>471</ele>
        <time>2016-07-10T07:29:44Z</time>
      </trkpt>
      <trkpt lat="47.73901" lon="7.02215">
        <ele>476</ele>
        <time>2016-07-10T07:30:01Z</time>
      </trkpt>
      <trkpt lat="47.73913" lon="7.02208">
        <ele>472</ele>
        <time>2016-07-10T07:30:16Z</time>
      </trkpt>
      <trkpt lat="47.73929" lon="7.02197">
        <ele>476</ele>
        <time>2016-07-10T07:30:34Z</time>
      </trkpt>
      <trkpt lat="47.73944" lon="7.0219">
        <ele>471</ele>
        <time>2016-07-10T07:30:45Z</time>
      </trkpt>
      <trkpt lat="47.7395" lon="7.02187">
        <ele>470</ele>
        <time>2016-07-10T07:30:48Z</time>
      </trkpt>
      <trkpt lat="47.73952" lon="7.02187">
        <ele>469</ele>
        <time>2016-07-10T07:30:57Z</time>
      </trkpt>
      <trkpt lat="47.73978" lon="7.02183">
        <ele>468</ele>
        <time>2016-07-10T07:31:24Z</time>
      </trkpt>
      <trkpt lat="47.73981" lon="7.02182">
        <ele>467</ele>
        <time>2016-07-10T07:31:28Z</time>
      </trkpt>
      <trkpt lat="47.73978" lon="7.02183">
        <ele>468</ele>
        <time>2016-07-10T07:31:36Z</time>
      </trkpt>
      <trkpt lat="47.73998" lon="7.02178">
        <ele>463</ele>
        <time>2016-07-10T07:31:53Z</time>
      </trkpt>
      <trkpt lat="47.74003" lon="7.02174">
        <ele>465</ele>
        <time>2016-07-10T07:31:56Z</time>
      </trkpt>
      <trkpt lat="47.74002" lon="7.02172">
        <ele>463</ele>
        <time>2016-07-10T07:32:05Z</time>
      </trkpt>
      <trkpt lat="47.73986" lon="7.02152">
        <ele>465</ele>
        <time>2016-07-10T07:32:23Z</time>
      </trkpt>
      <trkpt lat="47.73969" lon="7.02142">
        <ele>466</ele>
        <time>2016-07-10T07:32:39Z</time>
      </trkpt>
      <trkpt lat="47.73954" lon="7.02123">
        <ele>468</ele>
        <time>2016-07-10T07:32:54Z</time>
      </trkpt>
      <trkpt lat="47.7394" lon="7.02108">
        <ele>472</ele>
        <time>2016-07-10T07:33:07Z</time>
      </trkpt>
      <trkpt lat="47.73921" lon="7.02092">
        <ele>473</ele>
        <time>2016-07-10T07:33:18Z</time>
      </trkpt>
      <trkpt lat="47.73917" lon="7.02088">
        <ele>474</ele>
        <time>2016-07-10T07:33:23Z</time>
      </trkpt>
      <trkpt lat="47.73915" lon="7.02083">
        <ele>474</ele>
        <time>2016-07-10T07:33:30Z</time>
      </trkpt>
      <trkpt lat="47.739" lon="7.02076">
        <ele>471</ele>
        <time>2016-07-10T07:33:46Z</time>
      </trkpt>
      <trkpt lat="47.73889" lon="7.02064">
        <ele>475</ele>
        <time>2016-07-10T07:33:59Z</time>
      </trkpt>
      <trkpt lat="47.73865" lon="7.02048">
        <ele>477</ele>
        <time>2016-07-10T07:34:17Z</time>
      </trkpt>
      <trkpt lat="47.73851" lon="7.02043">
        <ele>481</ele>
        <time>2016-07-10T07:34:30Z</time>
      </trkpt>
      <trkpt lat="47.7384" lon="7.02026">
        <ele>477</ele>
        <time>2016-07-10T07:34:45Z</time>
      </trkpt>
      <trkpt lat="47.73826" lon="7.01998">
        <ele>474</ele>
        <time>2016-07-10T07:35:04Z</time>
      </trkpt>
      <trkpt lat="47.73821" lon="7.01983">
        <ele>471</ele>
        <time>2016-07-10T07:35:12Z</time>
      </trkpt>
      <trkpt lat="47.73809" lon="7.01967">
        <ele>469</ele>
        <time>2016-07-10T07:35:24Z</time>
      </trkpt>
      <trkpt lat="47.73797" lon="7.01951">
        <ele>472</ele>
        <time>2016-07-10T07:35:34Z</time>
      </trkpt>
      <trkpt lat="47.73797" lon="7.01951">
        <ele>472</ele>
        <time>2016-07-10T07:35:40Z</time>
      </trkpt>
      <trkpt lat="47.73793" lon="7.01937">
        <ele>471</ele>
        <time>2016-07-10T07:35:46Z</time>
      </trkpt>
      <trkpt lat="47.73787" lon="7.01908">
        <ele>464</ele>
        <time>2016-07-10T07:36:06Z</time>
      </trkpt>
      <trkpt lat="47.73776" lon="7.01888">
        <ele>466</ele>
        <time>2016-07-10T07:36:17Z</time>
      </trkpt>
      <trkpt lat="47.73779" lon="7.01865">
        <ele>466</ele>
        <time>2016-07-10T07:36:32Z</time>
      </trkpt>
      <trkpt lat="47.73773" lon="7.01845">
        <ele>463</ele>
        <time>2016-07-10T07:36:43Z</time>
      </trkpt>
      <trkpt lat="47.73771" lon="7.01807">
        <ele>463</ele>
        <time>2016-07-10T07:37:02Z</time>
      </trkpt>
      <trkpt lat="47.73773" lon="7.01779">
        <ele>466</ele>
        <time>2016-07-10T07:37:14Z</time>
      </trkpt>
      <trkpt lat="47.73768" lon="7.01764">
        <ele>461</ele>
        <time>2016-07-10T07:37:25Z</time>
      </trkpt>
      <trkpt lat="47.73772" lon="7.01747">
        <ele>461</ele>
        <time>2016-07-10T07:37:32Z</time>
      </trkpt>
      <trkpt lat="47.73783" lon="7.01732">
        <ele>461</ele>
        <time>2016-07-10T07:37:43Z</time>
      </trkpt>
      <trkpt lat="47.73797" lon="7.01723">
        <ele>463</ele>
        <time>2016-07-10T07:37:57Z</time>
      </trkpt>
      <trkpt lat="47.73817" lon="7.01712">
        <ele>462</ele>
        <time>2016-07-10T07:38:13Z</time>
      </trkpt>
      <trkpt lat="47.73834" lon="7.01696">
        <ele>466</ele>
        <time>2016-07-10T07:38:30Z</time>
      </trkpt>
      <trkpt lat="47.73856" lon="7.0167">
        <ele>464</ele>
        <time>2016-07-10T07:39:05Z</time>
      </trkpt>
      <trkpt lat="47.73858" lon="7.01635">
        <ele>472</ele>
        <time>2016-07-10T07:39:15Z</time>
      </trkpt>
      <trkpt lat="47.73864" lon="7.01621">
        <ele>472</ele>
        <time>2016-07-10T07:39:23Z</time>
      </trkpt>
      <trkpt lat="47.73873" lon="7.01604">
        <ele>472</ele>
        <time>2016-07-10T07:39:38Z</time>
      </trkpt>
      <trkpt lat="47.73881" lon="7.01571">
        <ele>468</ele>
        <time>2016-07-10T07:39:55Z</time>
      </trkpt>
      <trkpt lat="47.73887" lon="7.01548">
        <ele>467</ele>
        <time>2016-07-10T07:40:03Z</time>
      </trkpt>
      <trkpt lat="47.73891" lon="7.0154">
        <ele>469</ele>
        <time>2016-07-10T07:40:08Z</time>
      </trkpt>
      <trkpt lat="47.73889" lon="7.0153">
        <ele>470</ele>
        <time>2016-07-10T07:40:17Z</time>
      </trkpt>
      <trkpt lat="47.73893" lon="7.01525">
        <ele>472</ele>
        <time>2016-07-10T07:40:22Z</time>
      </trkpt>
      <trkpt lat="47.73889" lon="7.0153">
        <ele>470</ele>
        <time>2016-07-10T07:40:29Z</time>
      </trkpt>
      <trkpt lat="47.73906" lon="7.01529">
        <ele>467</ele>
        <time>2016-07-10T07:41:07Z</time>
      </trkpt>
      <trkpt lat="47.73906" lon="7.01529">
        <ele>467</ele>
        <time>2016-07-10T07:41:14Z</time>
      </trkpt>
      <trkpt lat="47.73906" lon="7.01529">
        <ele>467</ele>
        <time>2016-07-10T07:41:15Z</time>
      </trkpt>
      <trkpt lat="47.73883" lon="7.01509">
        <ele>471</ele>
        <time>2016-07-10T07:41:40Z</time>
      </trkpt>
      <trkpt lat="47.73872" lon="7.01504">
        <ele>474</ele>
        <time>2016-07-10T07:41:48Z</time>
      </trkpt>
      <trkpt lat="47.73858" lon="7.01497">
        <ele>473</ele>
        <time>2016-07-10T07:41:57Z</time>
      </trkpt>
      <trkpt lat="47.73851" lon="7.01492">
        <ele>471</ele>
        <time>2016-07-10T07:42:05Z</time>
      </trkpt>
      <trkpt lat="47.73842" lon="7.01491">
        <ele>472</ele>
        <time>2016-07-10T07:42:16Z</time>
      </trkpt>
      <trkpt lat="47.73827" lon="7.01485">
        <ele>467</ele>
        <time>2016-07-10T07:42:26Z</time>
      </trkpt>
      <trkpt lat="47.73808" lon="7.01476">
        <ele>472</ele>
        <time>2016-07-10T07:42:39Z</time>
      </trkpt>
      <trkpt lat="47.73797" lon="7.01474">
        <ele>470</ele>
        <time>2016-07-10T07:42:48Z</time>
      </trkpt>
      <trkpt lat="47.73784" lon="7.01467">
        <ele>469</ele>
        <time>2016-07-10T07:43:02Z</time>
      </trkpt>
      <trkpt lat="47.73765" lon="7.01462">
        <ele>467</ele>
        <time>2016-07-10T07:43:17Z</time>
      </trkpt>
      <trkpt lat="47.73745" lon="7.0146">
        <ele>466</ele>
        <time>2016-07-10T07:43:33Z</time>
      </trkpt>
      <trkpt lat="47.73727" lon="7.01457">
        <ele>470</ele>
        <time>2016-07-10T07:43:48Z</time>
      </trkpt>
      <trkpt lat="47.7371" lon="7.01461">
        <ele>471</ele>
        <time>2016-07-10T07:44:05Z</time>
      </trkpt>
      <trkpt lat="47.73696" lon="7.01463">
        <ele>471</ele>
        <time>2016-07-10T07:44:16Z</time>
      </trkpt>
      <trkpt lat="47.73678" lon="7.01452">
        <ele>470</ele>
        <time>2016-07-10T07:44:30Z</time>
      </trkpt>
      <trkpt lat="47.73664" lon="7.0146">
        <ele>471</ele>
        <time>2016-07-10T07:44:44Z</time>
      </trkpt>
      <trkpt lat="47.73652" lon="7.01443">
        <ele>464</ele>
        <time>2016-07-10T07:45:03Z</time>
      </trkpt>
      <trkpt lat="47.73646" lon="7.01421">
        <ele>465</ele>
        <time>2016-07-10T07:45:19Z</time>
      </trkpt>
      <trkpt lat="47.73642" lon="7.014">
        <ele>463</ele>
        <time>2016-07-10T07:45:35Z</time>
      </trkpt>
      <trkpt lat="47.73644" lon="7.01394">
        <ele>461</ele>
        <time>2016-07-10T07:45:43Z</time>
      </trkpt>
      <trkpt lat="47.73672" lon="7.01403">
        <ele>458</ele>
        <time>2016-07-10T07:46:25Z</time>
      </trkpt>
      <trkpt lat="47.73684" lon="7.01408">
        <ele>461</ele>
        <time>2016-07-10T07:46:38Z</time>
      </trkpt>
      <trkpt lat="47.73702" lon="7.01417">
        <ele>462</ele>
        <time>2016-07-10T07:46:56Z</time>
      </trkpt>
      <trkpt lat="47.73715" lon="7.01422">
        <ele>465</ele>
        <time>2016-07-10T07:47:09Z</time>
      </trkpt>
      <trkpt lat="47.73724" lon="7.01426">
        <ele>466</ele>
        <time>2016-07-10T07:47:17Z</time>
      </trkpt>
      <trkpt lat="47.73728" lon="7.01433">
        <ele>466</ele>
        <time>2016-07-10T07:47:25Z</time>
      </trkpt>
      <trkpt lat="47.73716" lon="7.01421">
        <ele>466</ele>
        <time>2016-07-10T08:00:45Z</time>
      </trkpt>
      <trkpt lat="47.73698" lon="7.01418">
        <ele>459</ele>
        <time>2016-07-10T08:01:01Z</time>
      </trkpt>
      <trkpt lat="47.73685" lon="7.01417">
        <ele>458</ele>
        <time>2016-07-10T08:01:11Z</time>
      </trkpt>
      <trkpt lat="47.73671" lon="7.01407">
        <ele>458</ele>
        <time>2016-07-10T08:01:24Z</time>
      </trkpt>
      <trkpt lat="47.73649" lon="7.01394">
        <ele>460</ele>
        <time>2016-07-10T08:01:42Z</time>
      </trkpt>
      <trkpt lat="47.73638" lon="7.01419">
        <ele>455</ele>
        <time>2016-07-10T08:02:02Z</time>
      </trkpt>
      <trkpt lat="47.73651" lon="7.01442">
        <ele>460</ele>
        <time>2016-07-10T08:02:18Z</time>
      </trkpt>
      <trkpt lat="47.73658" lon="7.01452">
        <ele>460</ele>
        <time>2016-07-10T08:02:26Z</time>
      </trkpt>
      <trkpt lat="47.73661" lon="7.01452">
        <ele>464</ele>
        <time>2016-07-10T08:02:35Z</time>
      </trkpt>
      <trkpt lat="47.73691" lon="7.01456">
        <ele>466</ele>
        <time>2016-07-10T08:03:09Z</time>
      </trkpt>
      <trkpt lat="47.73707" lon="7.01455">
        <ele>465</ele>
        <time>2016-07-10T08:03:20Z</time>
      </trkpt>
      <trkpt lat="47.73716" lon="7.01456">
        <ele>466</ele>
        <time>2016-07-10T08:03:26Z</time>
      </trkpt>
      <trkpt lat="47.73726" lon="7.01453">
        <ele>466</ele>
        <time>2016-07-10T08:03:34Z</time>
      </trkpt>
      <trkpt lat="47.73745" lon="7.01458">
        <ele>463</ele>
        <time>2016-07-10T08:03:53Z</time>
      </trkpt>
      <trkpt lat="47.73766" lon="7.01457">
        <ele>465</ele>
        <time>2016-07-10T08:04:10Z</time>
      </trkpt>
      <trkpt lat="47.73786" lon="7.01464">
        <ele>463</ele>
        <time>2016-07-10T08:04:24Z</time>
      </trkpt>
      <trkpt lat="47.73796" lon="7.01463">
        <ele>464</ele>
        <time>2016-07-10T08:04:31Z</time>
      </trkpt>
      <trkpt lat="47.73814" lon="7.01467">
        <ele>465</ele>
        <time>2016-07-10T08:04:45Z</time>
      </trkpt>
      <trkpt lat="47.73823" lon="7.01477">
        <ele>465</ele>
        <time>2016-07-10T08:04:57Z</time>
      </trkpt>
      <trkpt lat="47.73834" lon="7.01484">
        <ele>466</ele>
        <time>2016-07-10T08:05:04Z</time>
      </trkpt>
      <trkpt lat="47.7384" lon="7.01495">
        <ele>464</ele>
        <time>2016-07-10T08:05:15Z</time>
      </trkpt>
      <trkpt lat="47.73851" lon="7.01499">
        <ele>464</ele>
        <time>2016-07-10T08:05:25Z</time>
      </trkpt>
      <trkpt lat="47.73878" lon="7.01501">
        <ele>469</ele>
        <time>2016-07-10T08:05:37Z</time>
      </trkpt>
      <trkpt lat="47.73893" lon="7.01507">
        <ele>471</ele>
        <time>2016-07-10T08:05:48Z</time>
      </trkpt>
      <trkpt lat="47.73896" lon="7.0154">
        <ele>472</ele>
        <time>2016-07-10T08:06:06Z</time>
      </trkpt>
      <trkpt lat="47.73885" lon="7.01567">
        <ele>473</ele>
        <time>2016-07-10T08:06:26Z</time>
      </trkpt>
      <trkpt lat="47.73879" lon="7.01588">
        <ele>472</ele>
        <time>2016-07-10T08:06:39Z</time>
      </trkpt>
      <trkpt lat="47.73873" lon="7.01605">
        <ele>470</ele>
        <time>2016-07-10T08:06:53Z</time>
      </trkpt>
      <trkpt lat="47.73865" lon="7.01637">
        <ele>477</ele>
        <time>2016-07-10T08:07:05Z</time>
      </trkpt>
      <trkpt lat="47.73856" lon="7.01663">
        <ele>474</ele>
        <time>2016-07-10T08:07:17Z</time>
      </trkpt>
      <trkpt lat="47.73849" lon="7.01692">
        <ele>472</ele>
        <time>2016-07-10T08:07:39Z</time>
      </trkpt>
      <trkpt lat="47.73856" lon="7.01707">
        <ele>471</ele>
        <time>2016-07-10T08:07:51Z</time>
      </trkpt>
      <trkpt lat="47.73864" lon="7.01725">
        <ele>469</ele>
        <time>2016-07-10T08:08:02Z</time>
      </trkpt>
      <trkpt lat="47.73876" lon="7.0174">
        <ele>468</ele>
        <time>2016-07-10T08:08:12Z</time>
      </trkpt>
      <trkpt lat="47.73876" lon="7.01746">
        <ele>468</ele>
        <time>2016-07-10T08:08:20Z</time>
      </trkpt>
      <trkpt lat="47.73882" lon="7.01772">
        <ele>465</ele>
        <time>2016-07-10T08:08:58Z</time>
      </trkpt>
      <trkpt lat="47.739" lon="7.01804">
        <ele>470</ele>
        <time>2016-07-10T08:09:17Z</time>
      </trkpt>
      <trkpt lat="47.73911" lon="7.01827">
        <ele>472</ele>
        <time>2016-07-10T08:09:32Z</time>
      </trkpt>
      <trkpt lat="47.73911" lon="7.01832">
        <ele>473</ele>
        <time>2016-07-10T08:09:36Z</time>
      </trkpt>
      <trkpt lat="47.73913" lon="7.01835">
        <ele>474</ele>
        <time>2016-07-10T08:09:44Z</time>
      </trkpt>
      <trkpt lat="47.73925" lon="7.01864">
        <ele>473</ele>
        <time>2016-07-10T08:10:44Z</time>
      </trkpt>
      <trkpt lat="47.73934" lon="7.01884">
        <ele>476</ele>
        <time>2016-07-10T08:10:53Z</time>
      </trkpt>
      <trkpt lat="47.73942" lon="7.01904">
        <ele>474</ele>
        <time>2016-07-10T08:11:06Z</time>
      </trkpt>
      <trkpt lat="47.7396" lon="7.01922">
        <ele>478</ele>
        <time>2016-07-10T08:11:24Z</time>
      </trkpt>
      <trkpt lat="47.73968" lon="7.01945">
        <ele>478</ele>
        <time>2016-07-10T08:11:40Z</time>
      </trkpt>
      <trkpt lat="47.73974" lon="7.01973">
        <ele>477</ele>
        <time>2016-07-10T08:11:53Z</time>
      </trkpt>
      <trkpt lat="47.73985" lon="7.01989">
        <ele>482</ele>
        <time>2016-07-10T08:12:03Z</time>
      </trkpt>
      <trkpt lat="47.73999" lon="7.01999">
        <ele>482</ele>
        <time>2016-07-10T08:12:15Z</time>
      </trkpt>
      <trkpt lat="47.74004" lon="7.02015">
        <ele>472</ele>
        <time>2016-07-10T08:12:30Z</time>
      </trkpt>
      <trkpt lat="47.74014" lon="7.02032">
        <ele>476</ele>
        <time>2016-07-10T08:12:45Z</time>
      </trkpt>
      <trkpt lat="47.74017" lon="7.02043">
        <ele>477</ele>
        <time>2016-07-10T08:12:57Z</time>
      </trkpt>
      <trkpt lat="47.74025" lon="7.02051">
        <ele>473</ele>
        <time>2016-07-10T08:13:05Z</time>
      </trkpt>
      <trkpt lat="47.74038" lon="7.0206">
        <ele>476</ele>
        <time>2016-07-10T08:13:20Z</time>
      </trkpt>
      <trkpt lat="47.74058" lon="7.02095">
        <ele>475</ele>
        <time>2016-07-10T08:14:08Z</time>
      </trkpt>
      <trkpt lat="47.7407" lon="7.02103">
        <ele>476</ele>
        <time>2016-07-10T08:14:26Z</time>
      </trkpt>
      <trkpt lat="47.74082" lon="7.02112">
        <ele>472</ele>
        <time>2016-07-10T08:14:37Z</time>
      </trkpt>
      <trkpt lat="47.74092" lon="7.02123">
        <ele>470</ele>
        <time>2016-07-10T08:14:47Z</time>
      </trkpt>
      <trkpt lat="47.74109" lon="7.02138">
        <ele>473</ele>
        <time>2016-07-10T08:15:03Z</time>
      </trkpt>
      <trkpt lat="47.7412" lon="7.02155">
        <ele>474</ele>
        <time>2016-07-10T08:15:14Z</time>
      </trkpt>
      <trkpt lat="47.74133" lon="7.02168">
        <ele>474</ele>
        <time>2016-07-10T08:15:25Z</time>
      </trkpt>
      <trkpt lat="47.7415" lon="7.02175">
        <ele>476</ele>
        <time>2016-07-10T08:15:39Z</time>
      </trkpt>
      <trkpt lat="47.74161" lon="7.02184">
        <ele>477</ele>
        <time>2016-07-10T08:15:54Z</time>
      </trkpt>
      <trkpt lat="47.74176" lon="7.02194">
        <ele>478</ele>
        <time>2016-07-10T08:16:08Z</time>
      </trkpt>
      <trkpt lat="47.7419" lon="7.02206">
        <ele>475</ele>
        <time>2016-07-10T08:16:24Z</time>
      </trkpt>
      <trkpt lat="47.74205" lon="7.02213">
        <ele>477</ele>
        <time>2016-07-10T08:16:37Z</time>
      </trkpt>
      <trkpt lat="47.74228" lon="7.02222">
        <ele>480</ele>
        <time>2016-07-10T08:16:54Z</time>
      </trkpt>
      <trkpt lat="47.74244" lon="7.02225">
        <ele>477</ele>
        <time>2016-07-10T08:17:03Z</time>
      </trkpt>
      <trkpt lat="47.74258" lon="7.02236">
        <ele>472</ele>
        <time>2016-07-10T08:17:18Z</time>
      </trkpt>
      <trkpt lat="47.74268" lon="7.02249">
        <ele>479</ele>
        <time>2016-07-10T08:17:30Z</time>
      </trkpt>
      <trkpt lat="47.74281" lon="7.02259">
        <ele>475</ele>
        <time>2016-07-10T08:17:44Z</time>
      </trkpt>
      <trkpt lat="47.743" lon="7.0227">
        <ele>477</ele>
        <time>2016-07-10T08:18:01Z</time>
      </trkpt>
      <trkpt lat="47.74321" lon="7.02278">
        <ele>470</ele>
        <time>2016-07-10T08:18:18Z</time>
      </trkpt>
      <trkpt lat="47.74339" lon="7.02288">
        <ele>472</ele>
        <time>2016-07-10T08:18:35Z</time>
      </trkpt>
      <trkpt lat="47.74353" lon="7.02302">
        <ele>468</ele>
        <time>2016-07-10T08:18:52Z</time>
      </trkpt>
      <trkpt lat="47.74363" lon="7.0232">
        <ele>468</ele>
        <time>2016-07-10T08:19:04Z</time>
      </trkpt>
      <trkpt lat="47.74368" lon="7.02342">
        <ele>469</ele>
        <time>2016-07-10T08:19:16Z</time>
      </trkpt>
      <trkpt lat="47.74376" lon="7.02365">
        <ele>468</ele>
        <time>2016-07-10T08:19:28Z</time>
      </trkpt>
      <trkpt lat="47.74383" lon="7.02393">
        <ele>470</ele>
        <time>2016-07-10T08:19:42Z</time>
      </trkpt>
      <trkpt lat="47.74384" lon="7.02402">
        <ele>470</ele>
        <time>2016-07-10T08:19:47Z</time>
      </trkpt>
      <trkpt lat="47.74385" lon="7.02407">
        <ele>470</ele>
        <time>2016-07-10T08:19:56Z</time>
      </trkpt>
      <trkpt lat="47.74396" lon="7.02426">
        <ele>470</ele>
        <time>2016-07-10T08:20:20Z</time>
      </trkpt>
      <trkpt lat="47.74399" lon="7.02434">
        <ele>471</ele>
        <time>2016-07-10T08:20:24Z</time>
      </trkpt>
      <trkpt lat="47.74396" lon="7.02445">
        <ele>474</ele>
        <time>2016-07-10T08:20:37Z</time>
      </trkpt>
      <trkpt lat="47.74388" lon="7.02474">
        <ele>470</ele>
        <time>2016-07-10T08:20:55Z</time>
      </trkpt>
      <trkpt lat="47.7438" lon="7.02464">
        <ele>469</ele>
        <time>2016-07-10T08:21:07Z</time>
      </trkpt>
      <trkpt lat="47.74366" lon="7.02476">
        <ele>471</ele>
        <time>2016-07-10T08:21:28Z</time>
      </trkpt>
      <trkpt lat="47.74352" lon="7.02483">
        <ele>468</ele>
        <time>2016-07-10T08:21:38Z</time>
      </trkpt>
      <trkpt lat="47.74342" lon="7.02484">
        <ele>471</ele>
        <time>2016-07-10T08:21:45Z</time>
      </trkpt>
      <trkpt lat="47.74333" lon="7.02484">
        <ele>467</ele>
        <time>2016-07-10T08:21:52Z</time>
      </trkpt>
      <trkpt lat="47.74331" lon="7.02486">
        <ele>469</ele>
        <time>2016-07-10T08:22:00Z</time>
      </trkpt>
      <trkpt lat="47.74323" lon="7.02527">
        <ele>468</ele>
        <time>2016-07-10T08:22:30Z</time>
      </trkpt>
      <trkpt lat="47.7432" lon="7.02548">
        <ele>466</ele>
        <time>2016-07-10T08:22:41Z</time>
      </trkpt>
      <trkpt lat="47.7432" lon="7.02548">
        <ele>466</ele>
        <time>2016-07-10T08:22:48Z</time>
      </trkpt>
      <trkpt lat="47.7432" lon="7.02548">
        <ele>466</ele>
        <time>2016-07-10T08:22:49Z</time>
      </trkpt>
      <trkpt lat="47.74323" lon="7.02564">
        <ele>464</ele>
        <time>2016-07-10T08:22:58Z</time>
      </trkpt>
      <trkpt lat="47.74323" lon="7.02568">
        <ele>464</ele>
        <time>2016-07-10T08:23:02Z</time>
      </trkpt>
      <trkpt lat="47.74323" lon="7.02564">
        <ele>464</ele>
        <time>2016-07-10T08:23:08Z</time>
      </trkpt>
      <trkpt lat="47.74316" lon="7.02591">
        <ele>462</ele>
        <time>2016-07-10T08:23:21Z</time>
      </trkpt>
      <trkpt lat="47.74302" lon="7.02618">
        <ele>460</ele>
        <time>2016-07-10T08:23:37Z</time>
      </trkpt>
      <trkpt lat="47.743" lon="7.02644">
        <ele>464</ele>
        <time>2016-07-10T08:23:54Z</time>
      </trkpt>
      <trkpt lat="47.743" lon="7.02644">
        <ele>464</ele>
        <time>2016-07-10T08:24:01Z</time>
      </trkpt>
      <trkpt lat="47.743" lon="7.02644">
        <ele>464</ele>
        <time>2016-07-10T08:24:02Z</time>
      </trkpt>
      <trkpt lat="47.74285" lon="7.02675">
        <ele>459</ele>
        <time>2016-07-10T08:24:51Z</time>
      </trkpt>
      <trkpt lat="47.74258" lon="7.02692">
        <ele>457</ele>
        <time>2016-07-10T08:25:28Z</time>
      </trkpt>
      <trkpt lat="47.74243" lon="7.02698">
        <ele>458</ele>
        <time>2016-07-10T08:25:43Z</time>
      </trkpt>
      <trkpt lat="47.74243" lon="7.02698">
        <ele>458</ele>
        <time>2016-07-10T08:25:50Z</time>
      </trkpt>
      <trkpt lat="47.7424" lon="7.02705">
        <ele>460</ele>
        <time>2016-07-10T08:25:51Z</time>
      </trkpt>
      <trkpt lat="47.74211" lon="7.02716">
        <ele>463</ele>
        <time>2016-07-10T08:26:43Z</time>
      </trkpt>
      <trkpt lat="47.742" lon="7.02725">
        <ele>463</ele>
        <time>2016-07-10T08:26:55Z</time>
      </trkpt>
      <trkpt lat="47.74189" lon="7.02723">
        <ele>466</ele>
        <time>2016-07-10T08:27:08Z</time>
      </trkpt>
      <trkpt lat="47.74186" lon="7.02722">
        <ele>466</ele>
        <time>2016-07-10T08:27:17Z</time>
      </trkpt>
      <trkpt lat="47.74173" lon="7.02719">
        <ele>463</ele>
        <time>2016-07-10T08:27:43Z</time>
      </trkpt>
      <trkpt lat="47.74151" lon="7.02709">
        <ele>464</ele>
        <time>2016-07-10T08:28:01Z</time>
      </trkpt>
      <trkpt lat="47.74134" lon="7.02699">
        <ele>464</ele>
        <time>2016-07-10T08:28:18Z</time>
      </trkpt>
      <trkpt lat="47.74118" lon="7.02692">
        <ele>463</ele>
        <time>2016-07-10T08:28:32Z</time>
      </trkpt>
      <trkpt lat="47.74114" lon="7.02689">
        <ele>462</ele>
        <time>2016-07-10T08:28:37Z</time>
      </trkpt>
      <trkpt lat="47.74106" lon="7.0268">
        <ele>464</ele>
        <time>2016-07-10T08:28:51Z</time>
      </trkpt>
      <trkpt lat="47.74094" lon="7.02663">
        <ele>464</ele>
        <time>2016-07-10T08:29:07Z</time>
      </trkpt>
      <trkpt lat="47.74085" lon="7.02643">
        <ele>462</ele>
        <time>2016-07-10T08:29:25Z</time>
      </trkpt>
      <trkpt lat="47.74074" lon="7.02638">
        <ele>464</ele>
        <time>2016-07-10T08:29:35Z</time>
      </trkpt>
      <trkpt lat="47.74067" lon="7.02627">
        <ele>465</ele>
        <time>2016-07-10T08:29:47Z</time>
      </trkpt>
      <trkpt lat="47.74067" lon="7.02627">
        <ele>465</ele>
        <time>2016-07-10T08:29:54Z</time>
      </trkpt>
      <trkpt lat="47.74067" lon="7.02627">
        <ele>465</ele>
        <time>2016-07-10T08:29:55Z</time>
      </trkpt>
      <trkpt lat="47.74046" lon="7.0266">
        <ele>470</ele>
        <time>2016-07-10T08:30:39Z</time>
      </trkpt>
      <trkpt lat="47.7403" lon="7.02624">
        <ele>466</ele>
        <time>2016-07-10T08:31:35Z</time>
      </trkpt>
      <trkpt lat="47.74017" lon="7.02613">
        <ele>465</ele>
        <time>2016-07-10T08:31:43Z</time>
      </trkpt>
      <trkpt lat="47.74016" lon="7.02616">
        <ele>465</ele>
        <time>2016-07-10T08:31:52Z</time>
      </trkpt>
      <trkpt lat="47.73991" lon="7.0264">
        <ele>461</ele>
        <time>2016-07-10T08:33:08Z</time>
      </trkpt>
      <trkpt lat="47.73973" lon="7.02635">
        <ele>467</ele>
        <time>2016-07-10T08:33:22Z</time>
      </trkpt>
      <trkpt lat="47.73971" lon="7.02629">
        <ele>469</ele>
        <time>2016-07-10T08:33:28Z</time>
      </trkpt>
      <trkpt lat="47.73973" lon="7.02635">
        <ele>467</ele>
        <time>2016-07-10T08:33:37Z</time>
      </trkpt>
      <trkpt lat="47.73958" lon="7.02593">
        <ele>464</ele>
        <time>2016-07-10T08:34:38Z</time>
      </trkpt>
      <trkpt lat="47.73948" lon="7.02572">
        <ele>462</ele>
        <time>2016-07-10T08:34:46Z</time>
      </trkpt>
      <trkpt lat="47.73943" lon="7.0256">
        <ele>465</ele>
        <time>2016-07-10T08:34:54Z</time>
      </trkpt>
      <trkpt lat="47.73929" lon="7.02543">
        <ele>468</ele>
        <time>2016-07-10T08:35:10Z</time>
      </trkpt>
      <trkpt lat="47.73922" lon="7.02523">
        <ele>463</ele>
        <time>2016-07-10T08:35:20Z</time>
      </trkpt>
      <trkpt lat="47.73915" lon="7.02512">
        <ele>459</ele>
        <time>2016-07-10T08:35:29Z</time>
      </trkpt>
      <trkpt lat="47.73904" lon="7.02512">
        <ele>460</ele>
        <time>2016-07-10T08:35:36Z</time>
      </trkpt>
      <trkpt lat="47.73896" lon="7.02512">
        <ele>460</ele>
        <time>2016-07-10T08:35:46Z</time>
      </trkpt>
      <trkpt lat="47.73884" lon="7.02516">
        <ele>458</ele>
        <time>2016-07-10T08:35:59Z</time>
      </trkpt>
      <trkpt lat="47.73865" lon="7.02517">
        <ele>455</ele>
        <time>2016-07-10T08:36:17Z</time>
      </trkpt>
      <trkpt lat="47.73848" lon="7.02514">
        <ele>456</ele>
        <time>2016-07-10T08:36:31Z</time>
      </trkpt>
      <trkpt lat="47.73841" lon="7.02516">
        <ele>459</ele>
        <time>2016-07-10T08:36:43Z</time>
      </trkpt>
      <trkpt lat="47.73815" lon="7.02512">
        <ele>460</ele>
        <time>2016-07-10T08:37:53Z</time>
      </trkpt>
      <trkpt lat="47.73807" lon="7.02476">
        <ele>456</ele>
        <time>2016-07-10T08:38:22Z</time>
      </trkpt>
      <trkpt lat="47.73801" lon="7.02454">
        <ele>459</ele>
        <time>2016-07-10T08:38:34Z</time>
      </trkpt>
      <trkpt lat="47.73796" lon="7.02425">
        <ele>460</ele>
        <time>2016-07-10T08:38:49Z</time>
      </trkpt>
      <trkpt lat="47.73789" lon="7.02403">
        <ele>456</ele>
        <time>2016-07-10T08:39:01Z</time>
      </trkpt>
      <trkpt lat="47.73787" lon="7.02395">
        <ele>455</ele>
        <time>2016-07-10T08:39:05Z</time>
      </trkpt>
      <trkpt lat="47.7379" lon="7.02394">
        <ele>452</ele>
        <time>2016-07-10T08:39:14Z</time>
      </trkpt>
      <trkpt lat="47.73782" lon="7.02371">
        <ele>448</ele>
        <time>2016-07-10T08:39:49Z</time>
      </trkpt>
      <trkpt lat="47.73772" lon="7.02354">
        <ele>451</ele>
        <time>2016-07-10T08:39:57Z</time>
      </trkpt>
      <trkpt lat="47.73761" lon="7.02337">
        <ele>450</ele>
        <time>2016-07-10T08:40:07Z</time>
      </trkpt>
      <trkpt lat="47.73739" lon="7.02334">
        <ele>453</ele>
        <time>2016-07-10T08:40:20Z</time>
      </trkpt>
      <trkpt lat="47.7373" lon="7.02328">
        <ele>456</ele>
        <time>2016-07-10T08:40:29Z</time>
      </trkpt>
      <trkpt lat="47.73712" lon="7.02324">
        <ele>457</ele>
        <time>2016-07-10T08:40:46Z</time>
      </trkpt>
      <trkpt lat="47.7369" lon="7.02321">
        <ele>453</ele>
        <time>2016-07-10T08:41:03Z</time>
      </trkpt>
      <trkpt lat="47.73673" lon="7.02324">
        <ele>457</ele>
        <time>2016-07-10T08:41:13Z</time>
      </trkpt>
      <trkpt lat="47.73663" lon="7.02326">
        <ele>457</ele>
        <time>2016-07-10T08:41:18Z</time>
      </trkpt>
      <trkpt lat="47.73654" lon="7.02334">
        <ele>460</ele>
        <time>2016-07-10T08:41:28Z</time>
      </trkpt>
      <trkpt lat="47.73643" lon="7.02344">
        <ele>461</ele>
        <time>2016-07-10T08:41:38Z</time>
      </trkpt>
      <trkpt lat="47.7363" lon="7.0237">
        <ele>462</ele>
        <time>2016-07-10T08:41:55Z</time>
      </trkpt>
      <trkpt lat="47.73617" lon="7.02386">
        <ele>461</ele>
        <time>2016-07-10T08:42:11Z</time>
      </trkpt>
      <trkpt lat="47.73603" lon="7.02413">
        <ele>459</ele>
        <time>2016-07-10T08:42:30Z</time>
      </trkpt>
      <trkpt lat="47.73591" lon="7.02427">
        <ele>459</ele>
        <time>2016-07-10T08:42:42Z</time>
      </trkpt>
      <trkpt lat="47.73573" lon="7.02451">
        <ele>459</ele>
        <time>2016-07-10T08:43:01Z</time>
      </trkpt>
      <trkpt lat="47.73558" lon="7.02481">
        <ele>456</ele>
        <time>2016-07-10T08:43:19Z</time>
      </trkpt>
      <trkpt lat="47.73544" lon="7.02497">
        <ele>455</ele>
        <time>2016-07-10T08:43:33Z</time>
      </trkpt>
      <trkpt lat="47.73534" lon="7.02516">
        <ele>456</ele>
        <time>2016-07-10T08:43:44Z</time>
      </trkpt>
      <trkpt lat="47.73522" lon="7.02529">
        <ele>454</ele>
        <time>2016-07-10T08:43:55Z</time>
      </trkpt>
      <trkpt lat="47.7351" lon="7.02545">
        <ele>452</ele>
        <time>2016-07-10T08:44:08Z</time>
      </trkpt>
      <trkpt lat="47.73495" lon="7.02564">
        <ele>451</ele>
        <time>2016-07-10T08:44:25Z</time>
      </trkpt>
      <trkpt lat="47.73484" lon="7.02589">
        <ele>450</ele>
        <time>2016-07-10T08:44:37Z</time>
      </trkpt>
      <trkpt lat="47.73475" lon="7.02607">
        <ele>451</ele>
        <time>2016-07-10T08:44:50Z</time>
      </trkpt>
      <trkpt lat="47.73461" lon="7.02637">
        <ele>453</ele>
        <time>2016-07-10T08:45:10Z</time>
      </trkpt>
      <trkpt lat="47.73449" lon="7.02656">
        <ele>449</ele>
        <time>2016-07-10T08:45:27Z</time>
      </trkpt>
      <trkpt lat="47.73439" lon="7.02685">
        <ele>452</ele>
        <time>2016-07-10T08:45:43Z</time>
      </trkpt>
      <trkpt lat="47.73435" lon="7.02711">
        <ele>450</ele>
        <time>2016-07-10T08:45:54Z</time>
      </trkpt>
      <trkpt lat="47.73429" lon="7.02725">
        <ele>454</ele>
        <time>2016-07-10T08:46:00Z</time>
      </trkpt>
      <trkpt lat="47.7342" lon="7.02745">
        <ele>453</ele>
        <time>2016-07-10T08:46:14Z</time>
      </trkpt>
      <trkpt lat="47.73411" lon="7.02775">
        <ele>451</ele>
        <time>2016-07-10T08:46:31Z</time>
      </trkpt>
      <trkpt lat="47.73403" lon="7.02789">
        <ele>452</ele>
        <time>2016-07-10T08:46:40Z</time>
      </trkpt>
      <trkpt lat="47.73393" lon="7.02817">
        <ele>451</ele>
        <time>2016-07-10T08:46:56Z</time>
      </trkpt>
      <trkpt lat="47.73384" lon="7.0284">
        <ele>451</ele>
        <time>2016-07-10T08:47:11Z</time>
      </trkpt>
      <trkpt lat="47.73369" lon="7.02871">
        <ele>450</ele>
        <time>2016-07-10T08:47:31Z</time>
      </trkpt>
      <trkpt lat="47.7336" lon="7.02905">
        <ele>448</ele>
        <time>2016-07-10T08:47:49Z</time>
      </trkpt>
      <trkpt lat="47.73349" lon="7.02928">
        <ele>450</ele>
        <time>2016-07-10T08:48:05Z</time>
      </trkpt>
      <trkpt lat="47.73342" lon="7.02948">
        <ele>452</ele>
        <time>2016-07-10T08:48:17Z</time>
      </trkpt>
      <trkpt lat="47.73335" lon="7.02964">
        <ele>448</ele>
        <time>2016-07-10T08:48:29Z</time>
      </trkpt>
      <trkpt lat="47.73328" lon="7.02998">
        <ele>449</ele>
        <time>2016-07-10T08:48:45Z</time>
      </trkpt>
      <trkpt lat="47.73319" lon="7.03027">
        <ele>453</ele>
        <time>2016-07-10T08:49:00Z</time>
      </trkpt>
      <trkpt lat="47.73309" lon="7.03049">
        <ele>453</ele>
        <time>2016-07-10T08:49:16Z</time>
      </trkpt>
      <trkpt lat="47.73296" lon="7.03081">
        <ele>450</ele>
        <time>2016-07-10T08:49:36Z</time>
      </trkpt>
      <trkpt lat="47.73287" lon="7.03111">
        <ele>451</ele>
        <time>2016-07-10T08:49:53Z</time>
      </trkpt>
      <trkpt lat="47.73276" lon="7.03138">
        <ele>447</ele>
        <time>2016-07-10T08:50:10Z</time>
      </trkpt>
      <trkpt lat="47.73265" lon="7.03169">
        <ele>445</ele>
        <time>2016-07-10T08:50:29Z</time>
      </trkpt>
      <trkpt lat="47.73255" lon="7.03193">
        <ele>445</ele>
        <time>2016-07-10T08:50:42Z</time>
      </trkpt>
      <trkpt lat="47.73244" lon="7.03222">
        <ele>450</ele>
        <time>2016-07-10T08:50:59Z</time>
      </trkpt>
      <trkpt lat="47.73237" lon="7.03245">
        <ele>453</ele>
        <time>2016-07-10T08:51:13Z</time>
      </trkpt>
      <trkpt lat="47.73229" lon="7.03265">
        <ele>452</ele>
        <time>2016-07-10T08:51:26Z</time>
      </trkpt>
      <trkpt lat="47.73218" lon="7.03291">
        <ele>450</ele>
        <time>2016-07-10T08:51:42Z</time>
      </trkpt>
      <trkpt lat="47.7321" lon="7.0331">
        <ele>445</ele>
        <time>2016-07-10T08:51:55Z</time>
      </trkpt>
      <trkpt lat="47.73202" lon="7.03336">
        <ele>445</ele>
        <time>2016-07-10T08:52:10Z</time>
      </trkpt>
      <trkpt lat="47.7319" lon="7.03363">
        <ele>446</ele>
        <time>2016-07-10T08:52:26Z</time>
      </trkpt>
      <trkpt lat="47.7318" lon="7.03382">
        <ele>451</ele>
        <time>2016-07-10T08:52:43Z</time>
      </trkpt>
      <trkpt lat="47.7317" lon="7.03419">
        <ele>450</ele>
        <time>2016-07-10T08:53:00Z</time>
      </trkpt>
      <trkpt lat="47.73161" lon="7.03438">
        <ele>445</ele>
        <time>2016-07-10T08:53:13Z</time>
      </trkpt>
      <trkpt lat="47.73153" lon="7.03462">
        <ele>448</ele>
        <time>2016-07-10T08:53:27Z</time>
      </trkpt>
      <trkpt lat="47.73141" lon="7.03492">
        <ele>449</ele>
        <time>2016-07-10T08:53:46Z</time>
      </trkpt>
      <trkpt lat="47.73131" lon="7.03519">
        <ele>449</ele>
        <time>2016-07-10T08:54:02Z</time>
      </trkpt>
      <trkpt lat="47.73126" lon="7.03541">
        <ele>451</ele>
        <time>2016-07-10T08:54:14Z</time>
      </trkpt>
      <trkpt lat="47.73118" lon="7.03561">
        <ele>449</ele>
        <time>2016-07-10T08:54:26Z</time>
      </trkpt>
      <trkpt lat="47.73108" lon="7.03587">
        <ele>451</ele>
        <time>2016-07-10T08:54:41Z</time>
      </trkpt>
      <trkpt lat="47.73099" lon="7.03612">
        <ele>450</ele>
        <time>2016-07-10T08:54:56Z</time>
      </trkpt>
      <trkpt lat="47.73092" lon="7.03637">
        <ele>452</ele>
        <time>2016-07-10T08:55:10Z</time>
      </trkpt>
      <trkpt lat="47.73096" lon="7.0366">
        <ele>451</ele>
        <time>2016-07-10T08:55:25Z</time>
      </trkpt>
      <trkpt lat="47.73111" lon="7.03678">
        <ele>455</ele>
        <time>2016-07-10T08:55:40Z</time>
      </trkpt>
      <trkpt lat="47.73122" lon="7.03697">
        <ele>451</ele>
        <time>2016-07-10T08:55:54Z</time>
      </trkpt>
      <trkpt lat="47.73133" lon="7.03714">
        <ele>453</ele>
        <time>2016-07-10T08:56:07Z</time>
      </trkpt>
      <trkpt lat="47.73142" lon="7.0373">
        <ele>450</ele>
        <time>2016-07-10T08:56:19Z</time>
      </trkpt>
      <trkpt lat="47.73154" lon="7.03744">
        <ele>451</ele>
        <time>2016-07-10T08:56:31Z</time>
      </trkpt>
      <trkpt lat="47.73167" lon="7.03762">
        <ele>449</ele>
        <time>2016-07-10T08:56:44Z</time>
      </trkpt>
      <trkpt lat="47.7318" lon="7.03779">
        <ele>449</ele>
        <time>2016-07-10T08:56:58Z</time>
      </trkpt>
      <trkpt lat="47.7319" lon="7.03796">
        <ele>449</ele>
        <time>2016-07-10T08:57:11Z</time>
      </trkpt>
      <trkpt lat="47.73205" lon="7.03817">
        <ele>446</ele>
        <time>2016-07-10T08:57:27Z</time>
      </trkpt>
      <trkpt lat="47.73216" lon="7.03834">
        <ele>444</ele>
        <time>2016-07-10T08:57:41Z</time>
      </trkpt>
      <trkpt lat="47.73229" lon="7.0385">
        <ele>444</ele>
        <time>2016-07-10T08:57:54Z</time>
      </trkpt>
      <trkpt lat="47.73244" lon="7.03868">
        <ele>441</ele>
        <time>2016-07-10T08:58:08Z</time>
      </trkpt>
      <trkpt lat="47.73255" lon="7.03886">
        <ele>439</ele>
        <time>2016-07-10T08:58:22Z</time>
      </trkpt>
      <trkpt lat="47.73268" lon="7.03904">
        <ele>437</ele>
        <time>2016-07-10T08:58:38Z</time>
      </trkpt>
      <trkpt lat="47.73282" lon="7.03922">
        <ele>436</ele>
        <time>2016-07-10T08:58:54Z</time>
      </trkpt>
      <trkpt lat="47.73278" lon="7.0394">
        <ele>436</ele>
        <time>2016-07-10T08:59:09Z</time>
      </trkpt>
      <trkpt lat="47.73263" lon="7.03957">
        <ele>434</ele>
        <time>2016-07-10T08:59:26Z</time>
      </trkpt>
      <trkpt lat="47.73252" lon="7.03971">
        <ele>434</ele>
        <time>2016-07-10T08:59:41Z</time>
      </trkpt>
      <trkpt lat="47.7325" lon="7.03974">
        <ele>434</ele>
        <time>2016-07-10T08:59:43Z</time>
      </trkpt>
      <trkpt lat="47.73252" lon="7.03971">
        <ele>434</ele>
        <time>2016-07-10T08:59:51Z</time>
      </trkpt>
      <trkpt lat="47.7323" lon="7.03998">
        <ele>436</ele>
        <time>2016-07-10T09:00:31Z</time>
      </trkpt>
      <trkpt lat="47.7322" lon="7.04011">
        <ele>438</ele>
        <time>2016-07-10T09:00:45Z</time>
      </trkpt>
      <trkpt lat="47.73208" lon="7.04023">
        <ele>438</ele>
        <time>2016-07-10T09:01:00Z</time>
      </trkpt>
      <trkpt lat="47.73189" lon="7.04055">
        <ele>444</ele>
        <time>2016-07-10T09:02:01Z</time>
      </trkpt>
      <trkpt lat="47.73187" lon="7.04082">
        <ele>450</ele>
        <time>2016-07-10T09:02:15Z</time>
      </trkpt>
      <trkpt lat="47.73183" lon="7.0411">
        <ele>446</ele>
        <time>2016-07-10T09:02:33Z</time>
      </trkpt>
      <trkpt lat="47.73177" lon="7.0413">
        <ele>447</ele>
        <time>2016-07-10T09:02:46Z</time>
      </trkpt>
      <trkpt lat="47.7317" lon="7.04155">
        <ele>449</ele>
        <time>2016-07-10T09:03:03Z</time>
      </trkpt>
      <trkpt lat="47.73171" lon="7.04188">
        <ele>453</ele>
        <time>2016-07-10T09:03:22Z</time>
      </trkpt>
      <trkpt lat="47.73174" lon="7.04217">
        <ele>454</ele>
        <time>2016-07-10T09:03:40Z</time>
      </trkpt>
      <trkpt lat="47.73176" lon="7.04236">
        <ele>451</ele>
        <time>2016-07-10T09:03:52Z</time>
      </trkpt>
      <trkpt lat="47.73172" lon="7.04254">
        <ele>450</ele>
        <time>2016-07-10T09:04:03Z</time>
      </trkpt>
      <trkpt lat="47.73176" lon="7.04274">
        <ele>445</ele>
        <time>2016-07-10T09:04:18Z</time>
      </trkpt>
      <trkpt lat="47.73177" lon="7.04303">
        <ele>445</ele>
        <time>2016-07-10T09:04:37Z</time>
      </trkpt>
      <trkpt lat="47.73176" lon="7.04329">
        <ele>444</ele>
        <time>2016-07-10T09:04:57Z</time>
      </trkpt>
      <trkpt lat="47.73176" lon="7.04367">
        <ele>443</ele>
        <time>2016-07-10T09:05:12Z</time>
      </trkpt>
      <trkpt lat="47.73181" lon="7.04381">
        <ele>440</ele>
        <time>2016-07-10T09:05:20Z</time>
      </trkpt>
      <trkpt lat="47.73181" lon="7.04393">
        <ele>444</ele>
        <time>2016-07-10T09:05:33Z</time>
      </trkpt>
      <trkpt lat="47.73178" lon="7.04416">
        <ele>445</ele>
        <time>2016-07-10T09:05:45Z</time>
      </trkpt>
      <trkpt lat="47.73179" lon="7.04432">
        <ele>452</ele>
        <time>2016-07-10T09:05:53Z</time>
      </trkpt>
      <trkpt lat="47.73184" lon="7.0444">
        <ele>451</ele>
        <time>2016-07-10T09:05:58Z</time>
      </trkpt>
      <trkpt lat="47.73184" lon="7.04441">
        <ele>449</ele>
        <time>2016-07-10T09:06:07Z</time>
      </trkpt>
      <trkpt lat="47.73178" lon="7.04467">
        <ele>456</ele>
        <time>2016-07-10T09:06:40Z</time>
      </trkpt>
      <trkpt lat="47.73177" lon="7.04476">
        <ele>457</ele>
        <time>2016-07-10T09:06:44Z</time>
      </trkpt>
      <trkpt lat="47.73175" lon="7.0448">
        <ele>459</ele>
        <time>2016-07-10T09:06:53Z</time>
      </trkpt>
      <trkpt lat="47.73164" lon="7.04506">
        <ele>462</ele>
        <time>2016-07-10T09:07:26Z</time>
      </trkpt>
      <trkpt lat="47.73156" lon="7.04531">
        <ele>455</ele>
        <time>2016-07-10T09:07:36Z</time>
      </trkpt>
      <trkpt lat="47.73155" lon="7.04554">
        <ele>455</ele>
        <time>2016-07-10T09:07:45Z</time>
      </trkpt>
      <trkpt lat="47.73151" lon="7.04577">
        <ele>456</ele>
        <time>2016-07-10T09:07:58Z</time>
      </trkpt>
      <trkpt lat="47.73141" lon="7.04598">
        <ele>452</ele>
        <time>2016-07-10T09:08:16Z</time>
      </trkpt>
      <trkpt lat="47.73139" lon="7.04606">
        <ele>451</ele>
        <time>2016-07-10T09:08:20Z</time>
      </trkpt>
      <trkpt lat="47.73137" lon="7.04619">
        <ele>453</ele>
        <time>2016-07-10T09:08:33Z</time>
      </trkpt>
      <trkpt lat="47.73128" lon="7.04633">
        <ele>453</ele>
        <time>2016-07-10T09:08:46Z</time>
      </trkpt>
      <trkpt lat="47.73119" lon="7.04672">
        <ele>443</ele>
        <time>2016-07-10T09:09:05Z</time>
      </trkpt>
      <trkpt lat="47.73115" lon="7.04697">
        <ele>445</ele>
        <time>2016-07-10T09:09:20Z</time>
      </trkpt>
      <trkpt lat="47.73113" lon="7.04717">
        <ele>441</ele>
        <time>2016-07-10T09:09:34Z</time>
      </trkpt>
      <trkpt lat="47.73117" lon="7.04736">
        <ele>443</ele>
        <time>2016-07-10T09:09:49Z</time>
      </trkpt>
      <trkpt lat="47.73117" lon="7.04736">
        <ele>443</ele>
        <time>2016-07-10T09:09:57Z</time>
      </trkpt>
      <trkpt lat="47.73117" lon="7.04736">
        <ele>443</ele>
        <time>2016-07-10T09:09:58Z</time>
      </trkpt>
      <trkpt lat="47.7312" lon="7.04768">
        <ele>438</ele>
        <time>2016-07-10T09:10:22Z</time>
      </trkpt>
      <trkpt lat="47.73122" lon="7.04783">
        <ele>441</ele>
        <time>2016-07-10T09:10:29Z</time>
      </trkpt>
      <trkpt lat="47.73121" lon="7.048">
        <ele>437</ele>
        <time>2016-07-10T09:10:43Z</time>
      </trkpt>
      <trkpt lat="47.73118" lon="7.04817">
        <ele>439</ele>
        <time>2016-07-10T09:10:57Z</time>
      </trkpt>
      <trkpt lat="47.73115" lon="7.04846">
        <ele>445</ele>
        <time>2016-07-10T09:11:08Z</time>
      </trkpt>
      <trkpt lat="47.73116" lon="7.0486">
        <ele>446</ele>
        <time>2016-07-10T09:11:20Z</time>
      </trkpt>
      <trkpt lat="47.73107" lon="7.04886">
        <ele>443</ele>
        <time>2016-07-10T09:11:41Z</time>
      </trkpt>
      <trkpt lat="47.73101" lon="7.04911">
        <ele>442</ele>
        <time>2016-07-10T09:11:52Z</time>
      </trkpt>
      <trkpt lat="47.73096" lon="7.04937">
        <ele>441</ele>
        <time>2016-07-10T09:12:02Z</time>
      </trkpt>
      <trkpt lat="47.73094" lon="7.04947">
        <ele>438</ele>
        <time>2016-07-10T09:12:07Z</time>
      </trkpt>
      <trkpt lat="47.73093" lon="7.0496">
        <ele>436</ele>
        <time>2016-07-10T09:12:18Z</time>
      </trkpt>
      <trkpt lat="47.73096" lon="7.04983">
        <ele>441</ele>
        <time>2016-07-10T09:12:32Z</time>
      </trkpt>
      <trkpt lat="47.73095" lon="7.0499">
        <ele>438</ele>
        <time>2016-07-10T09:12:38Z</time>
      </trkpt>
      <trkpt lat="47.73095" lon="7.04993">
        <ele>433</ele>
        <time>2016-07-10T09:12:47Z</time>
      </trkpt>
      <trkpt lat="47.73097" lon="7.05039">
        <ele>431</ele>
        <time>2016-07-10T09:13:26Z</time>
      </trkpt>
      <trkpt lat="47.731" lon="7.05061">
        <ele>433</ele>
        <time>2016-07-10T09:13:39Z</time>
      </trkpt>
      <trkpt lat="47.73104" lon="7.05092">
        <ele>432</ele>
        <time>2016-07-10T09:13:56Z</time>
      </trkpt>
      <trkpt lat="47.73113" lon="7.05111">
        <ele>433</ele>
        <time>2016-07-10T09:14:09Z</time>
      </trkpt>
      <trkpt lat="47.73124" lon="7.05136">
        <ele>433</ele>
        <time>2016-07-10T09:14:26Z</time>
      </trkpt>
      <trkpt lat="47.73134" lon="7.05153">
        <ele>430</ele>
        <time>2016-07-10T09:14:41Z</time>
      </trkpt>
      <trkpt lat="47.7314" lon="7.05176">
        <ele>426</ele>
        <time>2016-07-10T09:14:58Z</time>
      </trkpt>
      <trkpt lat="47.73134" lon="7.05203">
        <ele>427</ele>
        <time>2016-07-10T09:15:16Z</time>
      </trkpt>
      <trkpt lat="47.73126" lon="7.05218">
        <ele>424</ele>
        <time>2016-07-10T09:15:30Z</time>
      </trkpt>
      <trkpt lat="47.73124" lon="7.05224">
        <ele>423</ele>
        <time>2016-07-10T09:15:35Z</time>
      </trkpt>
      <trkpt lat="47.73128" lon="7.0523">
        <ele>427</ele>
        <time>2016-07-10T09:15:47Z</time>
      </trkpt>
      <trkpt lat="47.7313" lon="7.05237">
        <ele>427</ele>
        <time>2016-07-10T09:15:52Z</time>
      </trkpt>
      <trkpt lat="47.7313" lon="7.05237">
        <ele>379.4</ele>
        <time>2016-07-10T09:16:00Z</time>
      </trkpt>
      <trkpt lat="47.7313" lon="7.05237">
        <ele>379.4</ele>
        <time>2016-07-10T09:16:03Z</time>
      </trkpt>
    </trkseg>
  </trk>
</gpx>